createdAt,value
2023-06-07T00:00:52.690Z,16.90
2023-06-07T00:03:22.265Z,16.90
2023-06-07T00:05:50.457Z,16.90
2023-06-07T00:08:19.365Z,16.90
2023-06-07T00:10:47.355Z,16.90
2023-06-07T00:13:15.287Z,16.90
2023-06-07T00:15:44.537Z,16.90
2023-06-07T00:18:12.523Z,16.80
2023-06-07T00:20:40.451Z,16.80
2023-06-07T00:23:09.559Z,16.80
2023-06-07T00:25:37.484Z,16.70
2023-06-07T00:28:05.832Z,16.70
2023-06-07T00:30:33.798Z,16.70
2023-06-07T00:33:03.176Z,16.70
2023-06-07T00:35:31.171Z,16.70
2023-06-07T00:37:59.036Z,16.60
2023-06-07T00:40:26.930Z,16.60
2023-06-07T00:42:54.835Z,16.50
2023-06-07T00:45:22.768Z,16.50
2023-06-07T00:47:50.861Z,16.50
2023-06-07T00:50:20.243Z,16.50
2023-06-07T00:52:48.350Z,16.40
2023-06-07T00:55:17.645Z,16.40
2023-06-07T00:57:46.649Z,16.30
2023-06-07T01:00:16.411Z,16.30
2023-06-07T01:02:47.423Z,16.20
2023-06-07T01:05:15.736Z,16.20
2023-06-07T01:07:47.538Z,16.20
2023-06-07T01:10:16.300Z,16.20
2023-06-07T01:12:45.883Z,16.20
2023-06-07T01:15:14.526Z,16.20
2023-06-07T01:17:45.580Z,16.20
2023-06-07T01:20:17.631Z,16.20
2023-06-07T01:22:48.497Z,16.10
2023-06-07T01:25:17.884Z,16.10
2023-06-07T01:27:47.403Z,16.10
2023-06-07T01:30:16.008Z,16.10
2023-06-07T01:32:45.428Z,16.00
2023-06-07T01:35:14.606Z,16.00
2023-06-07T01:37:44.241Z,16.00
2023-06-07T01:40:15.381Z,16.00
2023-06-07T01:42:45.307Z,16.00
2023-06-07T01:45:13.987Z,16.00
2023-06-07T01:47:42.550Z,15.90
2023-06-07T01:50:11.463Z,15.90
2023-06-07T01:52:39.356Z,15.90
2023-06-07T01:55:08.159Z,15.80
2023-06-07T01:57:46.273Z,15.80
2023-06-07T02:00:23.450Z,15.70
2023-06-07T02:02:55.849Z,15.70
2023-06-07T02:05:28.611Z,15.70
2023-06-07T02:07:58.839Z,15.70
2023-06-07T02:10:28.578Z,15.70
2023-06-07T02:12:59.836Z,15.60
2023-06-07T02:15:27.840Z,15.50
2023-06-07T02:17:59.476Z,15.50
2023-06-07T02:20:28.198Z,15.50
2023-06-07T02:22:58.026Z,15.50
2023-06-07T02:25:26.518Z,15.50
2023-06-07T02:27:54.954Z,15.50
2023-06-07T02:30:24.281Z,15.40
2023-06-07T02:32:54.967Z,15.40
2023-06-07T02:35:24.098Z,15.40
2023-06-07T02:37:52.089Z,15.40
2023-06-07T02:40:20.097Z,15.30
2023-06-07T02:42:48.591Z,15.40
2023-06-07T02:45:16.970Z,15.30
2023-06-07T02:47:47.092Z,15.30
2023-06-07T02:50:15.078Z,15.30
2023-06-07T02:52:45.336Z,15.30
2023-06-07T02:55:13.262Z,15.20
2023-06-07T02:57:41.824Z,15.30
2023-06-07T03:00:12.885Z,15.20
2023-06-07T03:02:41.309Z,15.10
2023-06-07T03:05:11.171Z,15.10
2023-06-07T03:07:41.621Z,15.10
2023-06-07T03:10:10.423Z,15.10
2023-06-07T03:12:38.447Z,15.10
2023-06-07T03:15:09.031Z,15.10
2023-06-07T03:17:37.767Z,15.10
2023-06-07T03:20:07.345Z,15.00
2023-06-07T03:22:37.836Z,15.00
2023-06-07T03:25:07.881Z,15.00
2023-06-07T03:27:36.205Z,15.00
2023-06-07T03:30:05.101Z,15.00
2023-06-07T03:32:33.336Z,14.90
2023-06-07T03:35:01.352Z,14.90
2023-06-07T03:37:29.266Z,15.00
2023-06-07T03:39:58.528Z,14.90
2023-06-07T03:42:26.601Z,14.90
2023-06-07T03:44:54.564Z,14.90
2023-06-07T03:47:22.498Z,14.90
2023-06-07T03:49:50.447Z,14.90
2023-06-07T03:52:18.396Z,15.00
2023-06-07T03:54:46.280Z,15.00
2023-06-07T03:57:15.574Z,15.00
2023-06-07T03:59:43.424Z,15.00
2023-06-07T04:02:11.401Z,15.00
2023-06-07T04:04:40.154Z,15.00
2023-06-07T04:07:08.611Z,14.90
2023-06-07T04:09:36.664Z,14.90
2023-06-07T04:12:06.572Z,14.90
2023-06-07T04:14:36.002Z,15.00
2023-06-07T04:17:04.367Z,15.00
2023-06-07T04:19:32.358Z,15.00
2023-06-07T04:22:00.736Z,15.10
2023-06-07T04:24:28.675Z,15.10
2023-06-07T04:26:57.157Z,15.20
2023-06-07T04:29:27.101Z,15.20
2023-06-07T04:31:58.148Z,15.20
2023-06-07T04:34:27.043Z,15.10
2023-06-07T04:36:56.272Z,15.00
2023-06-07T04:39:24.281Z,15.00
2023-06-07T04:41:54.286Z,14.90
2023-06-07T04:44:29.861Z,14.90
2023-06-07T04:47:06.748Z,14.90
2023-06-07T04:49:37.045Z,14.90
2023-06-07T04:52:06.768Z,15.00
2023-06-07T04:54:37.700Z,15.00
2023-06-07T04:57:07.879Z,15.00
2023-06-07T04:59:42.866Z,15.00
2023-06-07T05:02:12.558Z,15.10
2023-06-07T05:04:41.506Z,15.10
2023-06-07T05:07:10.077Z,15.20
2023-06-07T05:09:38.515Z,15.20
2023-06-07T05:12:07.529Z,15.30
2023-06-07T05:14:35.465Z,15.30
2023-06-07T05:17:03.400Z,15.30
2023-06-07T05:19:32.795Z,15.30
2023-06-07T05:22:02.566Z,15.40
2023-06-07T05:24:30.545Z,15.50
2023-06-07T05:26:58.587Z,15.50
2023-06-07T05:29:26.884Z,15.60
2023-06-07T05:31:54.870Z,15.60
2023-06-07T05:34:23.021Z,15.60
2023-06-07T05:36:52.508Z,15.70
2023-06-07T05:39:20.764Z,15.60
2023-06-07T05:41:48.705Z,15.60
2023-06-07T05:44:16.712Z,15.70
2023-06-07T05:46:44.580Z,15.70
2023-06-07T05:49:12.606Z,15.80
2023-06-07T05:51:41.680Z,15.80
2023-06-07T05:54:10.963Z,15.90
2023-06-07T05:56:38.909Z,16.00
2023-06-07T05:59:07.545Z,16.00
2023-06-07T06:01:36.681Z,16.00
2023-06-07T06:04:04.959Z,16.10
2023-06-07T06:06:32.922Z,16.10
2023-06-07T06:09:00.821Z,16.20
2023-06-07T06:11:30.089Z,16.20
2023-06-07T06:13:58.035Z,16.30
2023-06-07T06:16:26.045Z,16.40
2023-06-07T06:18:54.061Z,16.50
2023-06-07T06:21:22.005Z,16.60
2023-06-07T06:23:51.693Z,16.70
2023-06-07T06:26:23.049Z,16.80
2023-06-07T06:28:52.396Z,16.80
2023-06-07T06:31:20.413Z,16.90
2023-06-07T06:33:48.521Z,17.00
2023-06-07T06:36:17.082Z,17.10
2023-06-07T06:38:45.141Z,17.10
2023-06-07T06:41:13.061Z,17.20
2023-06-07T06:43:41.542Z,17.30
2023-06-07T06:46:10.981Z,17.40
2023-06-07T06:48:38.985Z,17.50
2023-06-07T06:51:06.946Z,17.50
2023-06-07T06:53:35.414Z,17.60
2023-06-07T06:56:03.682Z,17.70
2023-06-07T06:58:35.804Z,17.80
2023-06-07T07:01:04.182Z,17.80
2023-06-07T07:03:33.490Z,17.90
2023-06-07T07:06:01.467Z,18.00
2023-06-07T07:08:29.425Z,18.10
2023-06-07T07:10:57.338Z,18.20
2023-06-07T07:13:25.423Z,18.20
2023-06-07T07:15:53.446Z,18.30
2023-06-07T07:18:21.342Z,18.30
2023-06-07T07:20:50.816Z,18.40
2023-06-07T07:23:19.171Z,18.50
2023-06-07T07:25:47.101Z,18.50
2023-06-07T07:28:15.033Z,18.60
2023-06-07T07:30:43.002Z,18.70
2023-06-07T07:33:11.075Z,18.80
2023-06-07T07:35:39.027Z,18.80
2023-06-07T07:38:11.300Z,18.90
2023-06-07T07:40:39.248Z,19.00
2023-06-07T07:43:07.208Z,19.00
2023-06-07T07:45:35.117Z,19.10
2023-06-07T07:48:03.075Z,19.20
2023-06-07T07:50:32.780Z,19.20
2023-06-07T07:53:01.138Z,19.30
2023-06-07T07:55:32.048Z,19.40
2023-06-07T07:57:59.990Z,19.40
2023-06-07T08:00:27.914Z,19.50
2023-06-07T08:02:55.879Z,19.50
2023-06-07T08:05:23.938Z,19.60
2023-06-07T08:07:51.874Z,19.70
2023-06-07T08:10:19.789Z,19.80
2023-06-07T08:12:49.071Z,19.90
2023-06-07T08:15:17.009Z,20.00
2023-06-07T08:17:45.187Z,20.00
2023-06-07T08:20:13.828Z,20.10
2023-06-07T08:22:42.172Z,20.20
2023-06-07T08:25:11.145Z,20.30
2023-06-07T08:27:39.120Z,20.30
2023-06-07T08:30:10.293Z,20.50
2023-06-07T08:32:38.365Z,20.50
2023-06-07T08:35:07.289Z,20.60
2023-06-07T08:37:35.263Z,20.70
2023-06-07T08:40:06.177Z,20.80
2023-06-07T08:42:34.535Z,20.80
2023-06-07T08:45:02.584Z,20.90
2023-06-07T08:47:33.186Z,21.00
2023-06-07T08:50:03.243Z,21.00
2023-06-07T08:52:33.499Z,21.10
2023-06-07T08:55:06.344Z,21.10
2023-06-07T08:57:35.167Z,21.20
2023-06-07T09:00:04.798Z,21.20
2023-06-07T09:02:34.676Z,21.20
2023-06-07T09:05:06.918Z,21.30
2023-06-07T09:07:35.184Z,21.30
2023-06-07T09:10:03.542Z,21.40
2023-06-07T09:12:31.708Z,21.40
2023-06-07T09:14:59.755Z,21.40
2023-06-07T09:17:56.136Z,21.30
2023-06-07T09:20:26.020Z,21.40
2023-06-07T09:23:01.592Z,21.40
2023-06-07T09:25:30.102Z,21.50
2023-06-07T09:27:58.758Z,21.50
2023-06-07T09:30:27.157Z,21.70
2023-06-07T09:32:56.678Z,21.70
2023-06-07T09:35:25.217Z,21.80
2023-06-07T09:37:55.936Z,21.90
2023-06-07T09:40:24.711Z,21.90
2023-06-07T09:43:02.039Z,22.00
2023-06-07T09:45:30.259Z,22.10
2023-06-07T09:48:08.223Z,22.10
2023-06-07T09:50:36.273Z,22.20
2023-06-07T09:53:04.275Z,22.30
2023-06-07T09:55:32.577Z,22.30
2023-06-07T09:58:00.626Z,22.40
2023-06-07T10:00:28.954Z,22.50
2023-06-07T10:03:08.120Z,22.50
2023-06-07T10:05:36.961Z,22.40
2023-06-07T10:08:06.454Z,22.40
2023-06-07T10:10:36.040Z,22.40
2023-06-07T10:13:06.827Z,22.50
2023-06-07T10:15:36.834Z,22.50
2023-06-07T10:18:17.748Z,22.60
2023-06-07T10:20:53.372Z,22.80
2023-06-07T10:23:30.068Z,22.80
2023-06-07T10:26:04.054Z,22.90
2023-06-07T10:28:39.040Z,23.00
2023-06-07T10:31:13.842Z,23.10
2023-06-07T10:33:43.543Z,23.20
2023-06-07T10:36:12.434Z,23.30
2023-06-07T10:38:40.610Z,23.40
2023-06-07T10:41:09.278Z,23.50
2023-06-07T10:43:39.045Z,23.60
2023-06-07T10:46:19.246Z,23.70
2023-06-07T10:48:49.114Z,23.80
2023-06-07T10:51:17.386Z,23.90
2023-06-07T10:53:53.403Z,23.90
2023-06-07T10:56:32.136Z,23.90
2023-06-07T10:59:15.775Z,23.90
2023-06-07T11:01:45.192Z,23.90
2023-06-07T11:04:57.567Z,24.00
2023-06-07T11:07:28.862Z,24.00
2023-06-07T11:10:34.645Z,24.10
2023-06-07T11:13:03.129Z,24.20
2023-06-07T11:15:36.749Z,24.20
2023-06-07T11:18:11.196Z,24.30
2023-06-07T11:20:53.886Z,24.30
2023-06-07T11:23:29.436Z,24.40
2023-06-07T11:26:00.863Z,24.40
2023-06-07T11:28:30.025Z,24.40
2023-06-07T11:30:58.474Z,24.50
2023-06-07T11:33:27.053Z,24.50
2023-06-07T11:35:57.663Z,24.50
2023-06-07T11:38:27.309Z,24.50
2023-06-07T11:40:55.719Z,24.40
2023-06-07T11:43:26.066Z,24.30
2023-06-07T11:45:57.609Z,24.40
2023-06-07T11:48:27.942Z,24.40
2023-06-07T11:50:57.361Z,24.50
2023-06-07T11:53:29.727Z,24.60
2023-06-07T11:55:58.058Z,24.60
2023-06-07T11:58:26.280Z,24.70
2023-06-07T12:00:54.465Z,24.80
2023-06-07T12:03:24.042Z,24.80
2023-06-07T12:05:54.215Z,24.90
2023-06-07T12:08:31.021Z,24.80
2023-06-07T12:10:59.162Z,24.80
2023-06-07T12:13:27.121Z,24.80
2023-06-07T12:15:56.255Z,24.80
2023-06-07T12:18:27.788Z,24.80
2023-06-07T12:21:04.454Z,24.80
2023-06-07T12:23:34.099Z,24.80
2023-06-07T12:26:09.952Z,24.80
2023-06-07T12:28:38.591Z,24.80
2023-06-07T12:31:16.089Z,24.80
2023-06-07T12:33:54.428Z,24.70
2023-06-07T12:36:22.625Z,24.70
2023-06-07T12:38:52.038Z,24.70
2023-06-07T12:41:20.325Z,24.60
2023-06-07T12:43:48.292Z,24.70
2023-06-07T12:46:16.292Z,24.70
2023-06-07T12:48:44.599Z,24.70
2023-06-07T12:51:12.610Z,24.80
2023-06-07T12:53:40.668Z,24.70
2023-06-07T12:56:09.973Z,24.70
2023-06-07T12:58:37.878Z,24.60
2023-06-07T13:01:06.465Z,24.50
2023-06-07T13:03:35.053Z,24.50
2023-06-07T13:06:03.728Z,24.40
2023-06-07T13:08:31.717Z,24.40
2023-06-07T13:10:59.704Z,24.40
2023-06-07T13:13:29.798Z,24.40
2023-06-07T13:16:00.066Z,24.40
2023-06-07T13:18:29.038Z,24.40
2023-06-07T13:20:57.470Z,24.40
2023-06-07T13:23:25.653Z,24.40
2023-06-07T13:25:53.627Z,24.50
2023-06-07T13:28:21.602Z,24.50
2023-06-07T13:30:50.864Z,24.50
2023-06-07T13:33:18.914Z,24.60
2023-06-07T13:35:46.956Z,24.60
2023-06-07T13:38:14.997Z,24.60
2023-06-07T13:40:42.903Z,24.60
2023-06-07T13:43:10.831Z,24.60
2023-06-07T13:45:38.757Z,24.60
2023-06-07T13:48:08.708Z,24.70
2023-06-07T13:50:36.914Z,24.60
2023-06-07T13:53:05.232Z,24.60
2023-06-07T13:55:33.323Z,24.60
2023-06-07T13:58:01.418Z,24.60
2023-06-07T14:00:30.078Z,24.50
2023-06-07T14:02:58.212Z,24.60
2023-06-07T14:05:28.005Z,24.60
2023-06-07T14:07:56.165Z,24.60
2023-06-07T14:10:24.191Z,24.70
2023-06-07T14:12:52.143Z,24.70
2023-06-07T14:15:20.178Z,24.60
2023-06-07T14:17:48.194Z,24.60
2023-06-07T14:20:16.284Z,24.60
2023-06-07T14:22:45.652Z,24.60
2023-06-07T14:25:14.419Z,24.60
2023-06-07T14:27:43.286Z,24.60
2023-06-07T14:30:11.984Z,24.60
2023-06-07T14:32:40.058Z,24.60
2023-06-07T14:35:08.564Z,24.60
2023-06-07T14:37:36.565Z,24.60
2023-06-07T14:40:07.089Z,24.60
2023-06-07T14:42:35.252Z,24.60
2023-06-07T14:45:03.661Z,24.60
2023-06-07T14:47:31.789Z,24.60
2023-06-07T14:49:59.959Z,24.60
2023-06-07T14:52:27.997Z,24.60
2023-06-07T14:54:56.793Z,24.60
2023-06-07T14:57:26.097Z,24.60
2023-06-07T14:59:54.050Z,24.70
2023-06-07T15:02:22.052Z,24.70
2023-06-07T15:04:50.018Z,24.60
2023-06-07T15:07:18.009Z,24.60
2023-06-07T15:09:45.933Z,24.60
2023-06-07T15:12:14.741Z,24.50
2023-06-07T15:14:43.989Z,24.50
2023-06-07T15:17:13.017Z,24.50
2023-06-07T15:19:41.426Z,24.40
2023-06-07T15:22:09.373Z,24.40
2023-06-07T15:24:37.290Z,24.40
2023-06-07T15:27:06.258Z,24.50
2023-06-07T15:29:34.312Z,24.50
2023-06-07T15:32:03.686Z,24.50
2023-06-07T15:34:32.954Z,24.50
2023-06-07T15:37:01.043Z,24.50
2023-06-07T15:39:29.060Z,24.50
2023-06-07T15:41:56.972Z,24.50
2023-06-07T15:44:24.899Z,24.50
2023-06-07T15:46:52.861Z,24.50
2023-06-07T15:49:22.162Z,24.40
2023-06-07T15:51:50.178Z,24.40
2023-06-07T15:54:18.156Z,24.40
2023-06-07T15:56:46.160Z,24.40
2023-06-07T15:59:15.510Z,24.30
2023-06-07T16:01:43.596Z,24.30
2023-06-07T16:04:11.741Z,24.30
2023-06-07T16:06:41.106Z,24.30
2023-06-07T16:09:10.151Z,24.30
2023-06-07T16:11:40.458Z,24.30
2023-06-07T16:14:09.344Z,24.30
2023-06-07T16:16:37.502Z,24.30
2023-06-07T16:19:06.289Z,24.30
2023-06-07T16:21:34.440Z,24.20
2023-06-07T16:24:04.580Z,24.20
2023-06-07T16:26:32.617Z,24.20
2023-06-07T16:29:00.650Z,24.20
2023-06-07T16:31:31.587Z,24.20
2023-06-07T16:34:00.569Z,24.30
2023-06-07T16:36:30.836Z,24.30
2023-06-07T16:38:58.826Z,24.30
2023-06-07T16:41:28.231Z,24.30
2023-06-07T16:43:56.423Z,24.30
2023-06-07T16:46:24.431Z,24.30
2023-06-07T16:48:52.364Z,24.30
2023-06-07T16:51:20.583Z,24.30
2023-06-07T16:53:48.525Z,24.30
2023-06-07T16:56:16.545Z,24.30
2023-06-07T16:58:45.874Z,24.30
2023-06-07T17:01:14.067Z,24.20
2023-06-07T17:03:42.045Z,24.20
2023-06-07T17:06:10.086Z,24.20
2023-06-07T17:08:38.087Z,24.20
2023-06-07T17:11:09.019Z,24.20
2023-06-07T17:13:39.617Z,24.20
2023-06-07T17:16:08.926Z,24.20
2023-06-07T17:18:36.937Z,24.20
2023-06-07T17:21:05.615Z,24.20
2023-06-07T17:23:33.698Z,24.20
2023-06-07T17:26:01.858Z,24.10
2023-06-07T17:28:29.800Z,24.10
2023-06-07T17:30:57.737Z,24.10
2023-06-07T17:33:27.105Z,24.10
2023-06-07T17:35:55.103Z,24.10
2023-06-07T17:38:23.325Z,24.10
2023-06-07T17:40:51.290Z,24.10
2023-06-07T17:43:19.208Z,24.10
2023-06-07T17:45:47.224Z,24.00
2023-06-07T17:48:15.292Z,24.10
2023-06-07T17:50:47.426Z,24.00
2023-06-07T17:53:15.888Z,24.00
2023-06-07T17:55:45.860Z,24.00
2023-06-07T17:58:14.061Z,24.00
2023-06-07T18:00:42.081Z,24.00
2023-06-07T18:03:12.275Z,24.00
2023-06-07T18:05:40.702Z,23.90
2023-06-07T18:08:10.036Z,23.90
2023-06-07T18:10:38.497Z,23.90
2023-06-07T18:13:06.477Z,23.90
2023-06-07T18:15:35.953Z,23.90
2023-06-07T18:18:04.001Z,23.80
2023-06-07T18:20:31.936Z,23.80
2023-06-07T18:22:59.842Z,23.80
2023-06-07T18:25:29.130Z,23.80
2023-06-07T18:27:57.187Z,23.70
2023-06-07T18:30:25.127Z,23.70
2023-06-07T18:32:53.163Z,23.70
2023-06-07T18:35:21.336Z,23.70
2023-06-07T18:37:49.267Z,23.60
2023-06-07T18:40:17.408Z,23.50
2023-06-07T18:42:46.669Z,23.40
2023-06-07T18:45:14.661Z,23.40
2023-06-07T18:47:42.818Z,23.30
2023-06-07T18:50:11.605Z,23.20
2023-06-07T18:52:39.565Z,23.10
2023-06-07T18:55:08.848Z,23.10
2023-06-07T18:57:37.357Z,23.00
2023-06-07T19:00:08.331Z,22.90
2023-06-07T19:02:36.512Z,22.90
2023-06-07T19:05:04.988Z,22.90
2023-06-07T19:07:33.110Z,22.80
2023-06-07T19:10:01.217Z,22.80
2023-06-07T19:12:29.380Z,22.70
2023-06-07T19:14:57.481Z,22.60
2023-06-07T19:17:27.408Z,22.60
2023-06-07T19:19:57.992Z,22.50
2023-06-07T19:22:25.951Z,22.50
2023-06-07T19:24:53.921Z,22.40
2023-06-07T19:27:23.172Z,22.30
2023-06-07T19:29:51.166Z,22.20
2023-06-07T19:32:19.098Z,22.10
2023-06-07T19:34:49.909Z,22.10
2023-06-07T19:37:18.137Z,22.00
2023-06-07T19:39:46.109Z,22.00
2023-06-07T19:42:18.916Z,21.90
2023-06-07T19:44:47.117Z,21.80
2023-06-07T19:47:15.025Z,21.70
2023-06-07T19:49:42.980Z,21.60
2023-06-07T19:52:12.275Z,21.60
2023-06-07T19:54:40.192Z,21.50
2023-06-07T19:57:08.993Z,21.40
2023-06-07T19:59:38.684Z,21.30
2023-06-07T20:02:07.841Z,21.30
2023-06-07T20:04:36.077Z,21.30
2023-06-07T20:07:09.252Z,21.20
2023-06-07T20:09:40.583Z,21.20
2023-06-07T20:12:09.790Z,21.10
2023-06-07T20:14:40.682Z,21.10
2023-06-07T20:17:09.875Z,21.00
2023-06-07T20:19:38.299Z,21.00
2023-06-07T20:22:06.927Z,20.90
2023-06-07T20:24:34.874Z,20.80
2023-06-07T20:27:04.190Z,20.80
2023-06-07T20:29:32.106Z,20.80
2023-06-07T20:32:00.081Z,20.70
2023-06-07T20:34:28.733Z,20.60
2023-06-07T20:36:57.122Z,20.60
2023-06-07T20:39:25.089Z,20.50
2023-06-07T20:41:53.031Z,20.60
2023-06-07T20:44:22.346Z,20.50
2023-06-07T20:46:51.970Z,20.50
2023-06-07T20:49:19.928Z,20.50
2023-06-07T20:51:48.102Z,20.40
2023-06-07T20:54:16.183Z,20.40
2023-06-07T20:56:44.149Z,20.30
2023-06-07T20:59:12.253Z,20.30
2023-06-07T21:01:41.540Z,20.30
2023-06-07T21:04:09.702Z,20.30
2023-06-07T21:06:38.180Z,20.20
2023-06-07T21:09:06.133Z,20.20
2023-06-07T21:11:34.097Z,20.10
2023-06-07T21:14:02.054Z,20.10
2023-06-07T21:16:30.017Z,20.10
2023-06-07T21:18:59.400Z,20.00
2023-06-07T21:21:27.870Z,20.00
2023-06-07T21:23:55.890Z,19.90
2023-06-07T21:26:23.853Z,19.90
2023-06-07T21:28:51.781Z,19.90
2023-06-07T21:31:19.786Z,19.90
2023-06-07T21:34:00.538Z,19.80
2023-06-07T21:36:28.865Z,19.80
2023-06-07T21:38:57.917Z,19.80
2023-06-07T21:41:26.804Z,19.70
2023-06-07T21:43:54.910Z,19.70
2023-06-07T21:46:22.921Z,19.60
2023-06-07T21:48:50.923Z,19.60
2023-06-07T21:51:20.268Z,19.50
2023-06-07T21:53:48.213Z,19.50
2023-06-07T21:56:16.264Z,19.50
2023-06-07T21:58:44.172Z,19.40
2023-06-07T22:01:12.140Z,19.40
2023-06-07T22:03:40.074Z,19.40
2023-06-07T22:06:08.181Z,19.40
2023-06-07T22:08:37.547Z,19.30
2023-06-07T22:11:05.665Z,19.30
2023-06-07T22:13:37.787Z,19.30
2023-06-07T22:16:06.215Z,19.20
2023-06-07T22:18:36.322Z,19.20
2023-06-07T22:21:04.670Z,19.20
2023-06-07T22:23:32.944Z,19.20
2023-06-07T22:26:02.311Z,19.20
2023-06-07T22:28:31.181Z,19.20
2023-06-07T22:30:59.586Z,19.20
2023-06-07T22:33:27.702Z,19.10
2023-06-07T22:35:58.396Z,19.10
2023-06-07T22:38:26.980Z,19.10
2023-06-07T22:40:55.453Z,19.10
2023-06-07T22:43:24.785Z,19.10
2023-06-07T22:45:52.787Z,19.00
2023-06-07T22:48:21.768Z,19.00
2023-06-07T22:50:51.846Z,18.90
2023-06-07T22:53:20.985Z,18.80
2023-06-07T22:55:49.002Z,18.80
2023-06-07T22:58:16.894Z,18.80
2023-06-07T23:00:46.182Z,18.70
2023-06-07T23:03:14.200Z,18.70
2023-06-07T23:05:43.637Z,18.70
2023-06-07T23:08:11.657Z,18.70
2023-06-07T23:10:39.564Z,18.60
2023-06-07T23:13:09.978Z,18.70
2023-06-07T23:15:42.883Z,18.70
2023-06-07T23:18:13.201Z,18.70
2023-06-07T23:20:41.867Z,18.60
2023-06-07T23:23:10.990Z,18.60
2023-06-07T23:25:39.438Z,18.50
2023-06-07T23:28:07.683Z,18.50
2023-06-07T23:30:36.349Z,18.50
2023-06-07T23:33:04.725Z,18.40
2023-06-07T23:35:34.297Z,18.40
2023-06-07T23:38:02.312Z,18.30
2023-06-07T23:40:30.292Z,18.30
2023-06-07T23:42:58.278Z,18.30
2023-06-07T23:45:27.311Z,18.30
2023-06-07T23:47:55.513Z,18.20
2023-06-07T23:50:23.490Z,18.30
2023-06-07T23:52:52.795Z,18.20
2023-06-07T23:55:20.902Z,18.20
2023-06-07T23:57:48.872Z,18.20
